Weather at Antonio B. Won Pat International Airport

Public forecast

Using degrees Celsius for public forecast. Weather courtesy of forecast.io.

Current aviation weather report (METAR) for Antonio B. Won Pat International Airport

2024/07/20 15:54 (retrieved 43 minutes ago)

PGUM 201554Z 07006KT 10SM CLR 28/24 A2988 RMK AO2 SLP109 T02780244

Aviation forecast (TAF) for Antonio B. Won Pat International Airport

2024/07/20 12:33 (retrieved 4 hours ago)

TAF PGUM 201128Z 2012/2118 10007KT P6SM VCSH FEW017 SCT025 FM210100 09013KT P6SM VCSH SCT025 FM210600 11012KT P6SM VCSH SCT018 BKN030